createdAt,value
2022-10-07T00:00:24.344Z,5.42
2022-10-07T00:01:24.043Z,5.42
2022-10-07T00:02:24.266Z,5.34
2022-10-07T00:03:24.358Z,5.41
2022-10-07T00:04:24.281Z,5.41
2022-10-07T00:05:24.297Z,5.44
2022-10-07T00:06:24.260Z,5.48
2022-10-07T00:07:23.955Z,5.42
2022-10-07T00:08:23.964Z,5.46
2022-10-07T00:09:24.213Z,5.42
2022-10-07T00:10:24.480Z,5.42
2022-10-07T00:11:24.468Z,5.44
2022-10-07T00:12:24.456Z,5.48
2022-10-07T00:13:24.717Z,5.42
2022-10-07T00:14:24.700Z,5.33
2022-10-07T00:15:24.155Z,5.41
2022-10-07T00:16:24.668Z,5.44
2022-10-07T00:17:24.374Z,5.44
2022-10-07T00:18:24.083Z,5.33
2022-10-07T00:19:24.673Z,5.33
2022-10-07T00:20:24.601Z,5.44
2022-10-07T00:21:24.615Z,5.3
2022-10-07T00:22:24.301Z,5.36
2022-10-07T00:23:24.279Z,5.34
2022-10-07T00:24:24.273Z,5.39
2022-10-07T00:25:24.257Z,5.36
2022-10-07T00:26:24.505Z,5.41
2022-10-07T00:27:24.216Z,5.39
2022-10-07T00:28:24.709Z,5.36
2022-10-07T00:29:24.460Z,5.23
2022-10-07T00:30:24.452Z,5.26
2022-10-07T00:31:24.846Z,5.23
2022-10-07T00:32:24.413Z,5.24
2022-10-07T00:33:24.121Z,5.28
2022-10-07T00:34:24.387Z,5.24
2022-10-07T00:35:24.051Z,5.2
2022-10-07T00:36:24.072Z,5.3
2022-10-07T00:37:24.014Z,5.27
2022-10-07T00:38:24.158Z,5.24
2022-10-07T00:39:23.883Z,5.23
2022-10-07T00:40:23.611Z,5.34
2022-10-07T00:41:23.853Z,5.2
2022-10-07T00:42:23.842Z,5.27
2022-10-07T00:43:23.564Z,5.3
2022-10-07T00:44:23.558Z,5.23
2022-10-07T00:45:23.787Z,5.33
2022-10-07T00:46:24.079Z,5.24
2022-10-07T00:47:23.764Z,5.24
2022-10-07T00:48:23.493Z,5.28
2022-10-07T00:49:23.727Z,5.23
2022-10-07T00:50:23.975Z,5.23
2022-10-07T00:51:23.852Z,5.27
2022-10-07T00:52:23.681Z,5.24
2022-10-07T00:53:23.945Z,5.28
2022-10-07T00:54:23.913Z,5.2
2022-10-07T00:55:23.385Z,5.21
2022-10-07T00:56:23.622Z,5.2
2022-10-07T00:57:23.603Z,5.23
2022-10-07T00:58:23.846Z,5.15
2022-10-07T00:59:23.571Z,5.23
2022-10-07T01:00:23.568Z,5.21
2022-10-07T01:01:23.957Z,5.26
2022-10-07T01:02:24.114Z,5.16
2022-10-07T01:03:23.510Z,5.15
2022-10-07T01:04:23.492Z,5.13
2022-10-07T01:05:23.479Z,5.2
2022-10-07T01:06:23.200Z,5.13
2022-10-07T01:07:23.747Z,5.18
2022-10-07T01:08:23.427Z,5.12
2022-10-07T01:09:23.436Z,5.15
2022-10-07T01:10:23.407Z,5.2
2022-10-07T01:11:23.125Z,5.2
2022-10-07T01:12:23.681Z,5.21
2022-10-07T01:13:23.348Z,5.15
2022-10-07T01:14:23.595Z,5.13
2022-10-07T01:15:23.065Z,5.13
2022-10-07T01:16:23.441Z,5.09
2022-10-07T01:17:23.291Z,5.09
2022-10-07T01:18:23.533Z,5.08
2022-10-07T01:19:23.256Z,5.1
2022-10-07T01:20:22.984Z,5.13
2022-10-07T01:21:23.510Z,5.03
2022-10-07T01:22:23.465Z,5.12
2022-10-07T01:23:23.250Z,5.09
2022-10-07T01:24:23.177Z,5.06
2022-10-07T01:25:23.191Z,5.08
2022-10-07T01:26:23.151Z,5
2022-10-07T01:27:22.877Z,5.03
2022-10-07T01:28:23.605Z,4.92
2022-10-07T01:29:23.101Z,5.06
2022-10-07T01:30:23.081Z,5
2022-10-07T01:31:23.221Z,5.09
2022-10-07T01:32:22.791Z,4.94
2022-10-07T01:33:23.039Z,4.95
2022-10-07T01:34:23.275Z,4.95
2022-10-07T01:35:23.007Z,4.91
2022-10-07T01:36:22.986Z,4.92
2022-10-07T01:37:22.713Z,4.91
2022-10-07T01:39:23.359Z,4.91
2022-10-07T01:40:23.175Z,4.91
2022-10-07T01:41:23.236Z,4.95
2022-10-07T01:42:22.890Z,4.98
2022-10-07T01:43:22.876Z,4.92
2022-10-07T01:44:22.861Z,5.03
2022-10-07T01:45:22.841Z,4.95
2022-10-07T01:46:23.112Z,4.97
2022-10-07T01:47:23.068Z,4.91
2022-10-07T01:48:23.050Z,4.85
2022-10-07T01:49:22.777Z,4.91
2022-10-07T01:50:22.773Z,4.95
2022-10-07T01:51:23.002Z,4.83
2022-10-07T01:52:22.993Z,4.83
2022-10-07T01:53:22.716Z,4.84
2022-10-07T01:54:22.958Z,4.83
2022-10-07T01:55:23.153Z,4.79
2022-10-07T01:56:22.934Z,4.83
2022-10-07T01:57:22.687Z,4.88
2022-10-07T01:58:22.634Z,4.9
2022-10-07T01:59:22.769Z,4.75
2022-10-07T02:00:22.860Z,4.83
2022-10-07T02:01:22.588Z,4.75
2022-10-07T02:02:22.838Z,4.79
2022-10-07T02:03:23.149Z,4.74
2022-10-07T02:04:22.539Z,4.79
2022-10-07T02:05:22.520Z,4.76
2022-10-07T02:06:22.510Z,4.71
2022-10-07T02:07:22.500Z,4.76
2022-10-07T02:08:22.483Z,4.75
2022-10-07T02:09:22.715Z,4.74
2022-10-07T02:10:22.190Z,4.74
2022-10-07T02:11:22.487Z,4.83
2022-10-07T02:12:22.665Z,4.74
2022-10-07T02:13:22.415Z,4.75
2022-10-07T02:14:22.641Z,4.83
2022-10-07T02:15:22.361Z,4.75
2022-10-07T02:16:22.856Z,4.75
2022-10-07T02:17:22.328Z,4.69
2022-10-07T02:18:22.063Z,4.71
2022-10-07T02:19:22.044Z,4.68
2022-10-07T02:20:22.026Z,4.66
2022-10-07T02:21:23.282Z,4.66
2022-10-07T02:22:23.519Z,4.61
2022-10-07T02:23:23.247Z,4.68
2022-10-07T02:24:23.485Z,4.69
2022-10-07T02:25:23.219Z,4.69
2022-10-07T02:26:22.952Z,4.68
2022-10-07T02:27:23.387Z,4.71
2022-10-07T02:28:23.606Z,4.66
2022-10-07T02:29:23.435Z,4.61
2022-10-07T02:30:22.879Z,4.61
2022-10-07T02:31:23.587Z,4.61
2022-10-07T02:32:22.860Z,4.58
2022-10-07T02:33:23.090Z,4.61
2022-10-07T02:34:25.121Z,4.5
2022-10-07T02:35:23.320Z,4.48
2022-10-07T02:36:23.036Z,4.58
2022-10-07T02:37:22.771Z,4.53
2022-10-07T02:38:23.011Z,4.54
2022-10-07T02:39:22.991Z,4.57
2022-10-07T02:40:22.982Z,4.57
2022-10-07T02:41:22.959Z,4.5
2022-10-07T02:42:22.685Z,4.54
2022-10-07T02:43:24.272Z,4.47
2022-10-07T02:44:23.698Z,4.57
2022-10-07T02:45:29.561Z,4.48
2022-10-07T02:46:24.364Z,4.54
2022-10-07T02:47:23.900Z,4.48
2022-10-07T02:48:24.171Z,4.56
2022-10-07T02:49:23.870Z,4.53
2022-10-07T02:50:23.860Z,4.47
2022-10-07T02:51:25.908Z,4.46
2022-10-07T02:52:23.828Z,4.48
2022-10-07T02:53:23.807Z,4.53
2022-10-07T02:54:24.047Z,4.51
2022-10-07T02:55:23.793Z,4.51
2022-10-07T02:56:24.014Z,4.5
2022-10-07T02:57:23.743Z,4.5
2022-10-07T02:58:23.723Z,4.54
2022-10-07T02:59:24.012Z,4.53
2022-10-07T03:00:23.946Z,4.54
2022-10-07T03:01:23.878Z,4.61
2022-10-07T03:02:23.919Z,4.64
2022-10-07T03:03:24.166Z,4.48
2022-10-07T03:04:23.622Z,4.56
2022-10-07T03:05:24.363Z,4.48
2022-10-07T03:06:24.600Z,4.48
2022-10-07T03:07:24.856Z,4.5
2022-10-07T03:08:24.833Z,4.48
2022-10-07T03:09:24.549Z,4.48
2022-10-07T03:10:24.530Z,4.56
2022-10-07T03:11:24.258Z,4.47
2022-10-07T03:12:24.499Z,4.53
2022-10-07T03:13:24.741Z,4.47
2022-10-07T03:14:24.468Z,4.44
2022-10-07T03:15:24.821Z,4.46
2022-10-07T03:16:24.816Z,4.44
2022-10-07T03:17:24.846Z,4.42
2022-10-07T03:18:24.147Z,4.38
2022-10-07T03:19:24.384Z,4.39
2022-10-07T03:20:24.111Z,4.36
2022-10-07T03:21:24.356Z,4.4
2022-10-07T03:22:24.336Z,4.35
2022-10-07T03:23:24.588Z,4.42
2022-10-07T03:24:24.072Z,4.32
2022-10-07T03:25:24.539Z,4.28
2022-10-07T03:26:24.023Z,4.32
2022-10-07T03:27:24.254Z,4.32
2022-10-07T03:28:24.198Z,4.36
2022-10-07T03:29:24.230Z,4.35
2022-10-07T03:30:29.387Z,4.32
2022-10-07T03:31:24.437Z,4.32
2022-10-07T03:32:24.183Z,4.28
2022-10-07T03:49:49.313Z,4.2
2022-10-07T03:50:48.955Z,4.11
2022-10-07T03:51:49.299Z,3.96
2022-10-07T03:52:49.175Z,4.04
2022-10-07T03:53:48.651Z,3.97
2022-10-07T03:54:49.142Z,3.99
2022-10-07T03:55:48.865Z,3.99
2022-10-07T03:56:48.846Z,3.93
2022-10-07T03:57:49.799Z,3.92
2022-10-07T03:58:49.066Z,3.84
2022-10-07T03:59:49.051Z,3.94
2022-10-07T04:00:49.032Z,3.94
2022-10-07T04:01:49.032Z,3.85
2022-10-07T04:02:49.155Z,3.9
2022-10-07T04:03:48.739Z,3.92
2022-10-07T04:04:48.967Z,3.82
2022-10-07T04:05:49.015Z,3.81
2022-10-07T04:06:48.930Z,3.89
2022-10-07T04:07:49.714Z,3.85
2022-10-07T04:08:48.378Z,3.9
2022-10-07T04:09:48.886Z,3.86
2022-10-07T04:10:48.612Z,3.81
2022-10-07T04:11:49.015Z,3.86
2022-10-07T04:12:48.573Z,3.89
2022-10-07T04:13:48.301Z,3.82
2022-10-07T04:14:48.536Z,3.92
2022-10-07T04:15:48.615Z,3.92
2022-10-07T04:16:48.461Z,4
2022-10-07T04:17:49.559Z,3.94
2022-10-07T04:18:48.219Z,4.08
2022-10-07T04:19:48.191Z,4.07
2022-10-07T04:20:48.431Z,4.08
2022-10-07T04:21:48.746Z,4.18
2022-10-07T04:22:48.398Z,4.14
2022-10-07T04:23:48.384Z,4.18
2022-10-07T04:24:48.363Z,4.28
2022-10-07T04:25:48.374Z,4.17
2022-10-07T04:26:48.073Z,4.29
2022-10-07T04:27:56.974Z,4.36
2022-10-07T04:28:48.230Z,4.39
2022-10-07T04:29:48.029Z,4.47
2022-10-07T04:30:48.322Z,4.53
2022-10-07T04:31:48.541Z,4.5
2022-10-07T04:32:47.977Z,4.46
2022-10-07T04:33:47.960Z,4.46
2022-10-07T04:34:48.452Z,4.53
2022-10-07T04:35:48.185Z,4.53
2022-10-07T04:36:48.161Z,4.56
2022-10-07T04:37:49.649Z,4.5
2022-10-07T04:38:47.872Z,4.56
2022-10-07T04:40:05.205Z,4.65
2022-10-07T04:40:48.104Z,4.61
2022-10-07T04:41:47.826Z,4.66
2022-10-07T04:42:48.067Z,4.65
2022-10-07T04:43:48.305Z,4.65
2022-10-07T04:44:48.291Z,4.75
2022-10-07T04:45:48.283Z,4.69
2022-10-07T04:46:48.513Z,4.64
2022-10-07T04:47:49.396Z,4.66
2022-10-07T04:48:47.974Z,4.65
2022-10-07T04:49:47.956Z,4.6
2022-10-07T04:50:48.189Z,4.64
2022-10-07T04:51:48.172Z,4.61
2022-10-07T04:52:48.156Z,4.58
2022-10-07T04:53:48.212Z,4.65
2022-10-07T04:54:47.617Z,4.65
2022-10-07T04:55:47.860Z,4.65
2022-10-07T04:56:47.848Z,4.64
2022-10-07T04:57:48.886Z,4.58
2022-10-07T04:58:47.815Z,4.54
2022-10-07T04:59:47.933Z,4.58
2022-10-07T05:00:48.350Z,4.6
2022-10-07T05:01:47.989Z,4.51
2022-10-07T05:02:47.739Z,4.5
2022-10-07T05:03:47.718Z,4.5
2022-10-07T05:04:47.704Z,4.48
2022-10-07T05:05:47.432Z,4.5
2022-10-07T05:06:47.678Z,4.54
2022-10-07T05:07:48.231Z,4.53
2022-10-07T05:08:47.896Z,4.54
2022-10-07T05:09:47.947Z,4.57
2022-10-07T05:10:47.863Z,4.53
2022-10-07T05:11:47.847Z,4.5
2022-10-07T05:12:47.339Z,4.53
2022-10-07T05:13:47.581Z,4.6
2022-10-07T05:14:47.553Z,4.57
2022-10-07T05:15:47.522Z,4.46
2022-10-07T05:16:47.742Z,4.48
2022-10-07T05:17:48.912Z,4.5
2022-10-07T05:18:47.483Z,4.5
2022-10-07T05:19:47.479Z,4.53
2022-10-07T05:20:47.185Z,4.57
2022-10-07T05:21:47.625Z,4.6
2022-10-07T05:22:47.421Z,4.57
2022-10-07T05:23:47.652Z,4.58
2022-10-07T05:24:47.379Z,4.66
2022-10-07T05:25:47.685Z,4.64
2022-10-07T05:26:47.612Z,4.58
2022-10-07T05:27:48.493Z,4.6
2022-10-07T05:28:47.478Z,4.56
2022-10-07T05:29:47.306Z,4.61
2022-10-07T05:30:47.048Z,4.66
2022-10-07T05:31:47.837Z,4.72
2022-10-07T05:32:47.503Z,4.78
2022-10-07T05:33:47.033Z,4.88
2022-10-07T05:34:47.243Z,4.91
2022-10-07T05:35:46.971Z,4.91
2022-10-07T05:36:47.453Z,4.95
2022-10-07T05:37:54.162Z,5.09
2022-10-07T05:38:47.164Z,5.06
2022-10-07T05:39:47.142Z,5.18
2022-10-07T05:40:47.117Z,5.23
2022-10-07T05:41:50.718Z,5.44
2022-10-07T05:42:47.080Z,5.49
2022-10-07T05:43:47.337Z,5.63
2022-10-07T05:44:46.793Z,5.72
2022-10-07T05:45:47.414Z,5.78
2022-10-07T05:46:47.017Z,5.88
2022-10-07T05:47:48.121Z,6
2022-10-07T05:48:46.988Z,6
2022-10-07T05:49:46.976Z,6.05
2022-10-07T05:50:46.954Z,6.1
2022-10-07T05:51:47.194Z,6.13
2022-10-07T05:52:46.927Z,6.2
2022-10-07T05:53:46.925Z,6.26
2022-10-07T05:54:46.633Z,6.24
2022-10-07T05:55:46.871Z,6.37
2022-10-07T05:56:47.116Z,6.37
2022-10-07T05:57:48.012Z,6.4
2022-10-07T05:58:46.828Z,6.54
2022-10-07T05:59:46.563Z,6.47
2022-10-07T06:00:47.051Z,6.51
2022-10-07T06:01:47.041Z,6.55
2022-10-07T06:02:47.300Z,6.61
2022-10-07T06:03:46.493Z,6.76
2022-10-07T06:04:46.736Z,6.83
2022-10-07T06:05:46.716Z,7.03
2022-10-07T06:06:46.708Z,7.21
2022-10-07T06:07:48.118Z,7.16
2022-10-07T06:08:46.670Z,7.19
2022-10-07T06:09:46.660Z,7.18
2022-10-07T06:10:46.903Z,7.22
2022-10-07T06:11:46.627Z,7.23
2022-10-07T06:12:46.607Z,7.23
2022-10-07T06:13:46.941Z,7.27
2022-10-07T06:14:46.841Z,7.22
2022-10-07T06:15:46.587Z,7.27
2022-10-07T06:16:47.059Z,7.31
2022-10-07T06:17:47.537Z,7.47
2022-10-07T06:18:46.263Z,7.4
2022-10-07T06:19:46.247Z,7.44
2022-10-07T06:20:46.745Z,7.49
2022-10-07T06:21:46.472Z,7.48
2022-10-07T06:22:46.714Z,7.45
2022-10-07T06:23:46.445Z,7.4
2022-10-07T06:24:46.692Z,7.44
2022-10-07T06:25:46.415Z,7.52
2022-10-07T06:26:46.402Z,7.51
2022-10-07T06:27:54.003Z,7.56
2022-10-07T06:28:46.599Z,7.63
2022-10-07T06:29:46.686Z,7.64
2022-10-07T06:30:46.532Z,7.64
2022-10-07T06:31:46.586Z,7.78
2022-10-07T06:32:46.319Z,7.78
2022-10-07T06:33:46.556Z,7.82
2022-10-07T06:34:46.283Z,7.86
2022-10-07T06:35:46.536Z,7.86
2022-10-07T06:36:46.009Z,7.92
2022-10-07T06:37:47.296Z,7.98
2022-10-07T06:38:46.485Z,8.06
2022-10-07T06:39:46.481Z,8.04
2022-10-07T06:40:46.201Z,8.09
2022-10-07T06:41:46.438Z,8.1
2022-10-07T06:42:46.170Z,8.07
2022-10-07T06:43:46.412Z,8.17
2022-10-07T06:44:46.194Z,8.28
2022-10-07T06:45:46.708Z,8.29
2022-10-07T06:46:46.429Z,8.31
2022-10-07T06:47:47.637Z,8.36
2022-10-07T06:48:46.930Z,8.4
2022-10-07T06:49:46.645Z,8.49
2022-10-07T06:50:46.888Z,8.52
2022-10-07T06:51:46.896Z,8.53
2022-10-07T06:52:48.439Z,8.47
2022-10-07T06:53:46.589Z,8.61
2022-10-07T06:54:46.595Z,8.65
2022-10-07T06:55:46.816Z,8.62
2022-10-07T06:56:46.805Z,8.72
2022-10-07T06:57:50.486Z,8.76
2022-10-07T06:58:46.262Z,8.71
2022-10-07T06:59:46.507Z,8.72
2022-10-07T07:00:46.830Z,8.87
2022-10-07T07:01:47.227Z,8.87
2022-10-07T07:02:47.124Z,9
2022-10-07T07:03:46.451Z,8.94
2022-10-07T07:04:46.910Z,8.86
2022-10-07T07:05:54.415Z,8.94
2022-10-07T07:06:46.163Z,8.92
2022-10-07T07:07:47.342Z,9.03
2022-10-07T07:08:47.112Z,9
2022-10-07T07:09:47.352Z,8.97
2022-10-07T07:10:47.083Z,9.01
2022-10-07T07:11:47.078Z,8.97
2022-10-07T07:12:48.223Z,9.01
2022-10-07T07:13:50.798Z,8.98
2022-10-07T07:14:47.298Z,9.05
2022-10-07T07:15:47.018Z,9
2022-10-07T07:16:46.989Z,9
2022-10-07T07:17:48.642Z,9.16
2022-10-07T07:18:46.973Z,9.01
2022-10-07T07:19:46.964Z,9.08
2022-10-07T07:20:47.201Z,9.16
2022-10-07T07:21:51.408Z,9.14
2022-10-07T07:22:46.664Z,9.2
2022-10-07T07:23:46.923Z,9.23
2022-10-07T07:24:47.158Z,9.16
2022-10-07T07:25:47.141Z,9.35
2022-10-07T07:26:46.614Z,9.32
2022-10-07T07:27:49.498Z,9.37
2022-10-07T07:28:47.022Z,9.39
2022-10-07T07:29:46.833Z,9.52
2022-10-07T07:30:48.158Z,9.47
2022-10-07T07:31:48.002Z,9.53
2022-10-07T07:32:47.723Z,9.52
2022-10-07T07:33:48.150Z,9.5
2022-10-07T07:34:47.902Z,9.52
2022-10-07T07:35:47.692Z,9.47
2022-10-07T07:36:47.684Z,9.6
2022-10-07T07:37:48.870Z,9.59
2022-10-07T07:38:47.901Z,9.7
2022-10-07T07:39:47.638Z,9.67
2022-10-07T07:40:47.626Z,9.72
2022-10-07T07:41:47.347Z,9.71
2022-10-07T07:42:47.594Z,9.75
2022-10-07T07:43:47.584Z,9.81
2022-10-07T07:44:47.834Z,9.84
2022-10-07T07:45:47.421Z,9.84
2022-10-07T07:46:47.800Z,9.89
2022-10-07T07:47:48.484Z,9.99
2022-10-07T07:48:47.525Z,10
2022-10-07T07:49:47.853Z,9.98
2022-10-07T07:50:47.493Z,10.07
2022-10-07T07:51:47.481Z,10.1
2022-10-07T07:52:48.322Z,10
2022-10-07T07:53:48.055Z,10.02
2022-10-07T07:54:47.783Z,10.08
2022-10-07T07:55:48.286Z,10.14
2022-10-07T07:56:47.762Z,10.21
2022-10-07T07:57:49.206Z,10.18
2022-10-07T07:58:48.253Z,10.28
2022-10-07T07:59:48.245Z,10.28
2022-10-07T08:00:48.227Z,10.28
2022-10-07T08:01:47.966Z,10.29
2022-10-07T08:02:48.435Z,10.35
2022-10-07T08:03:47.934Z,10.41
2022-10-07T08:04:47.662Z,10.44
2022-10-07T08:05:48.254Z,10.51
2022-10-07T08:06:47.912Z,10.51
2022-10-07T08:07:49.209Z,10.59
2022-10-07T08:08:47.891Z,10.61
2022-10-07T08:09:48.128Z,10.66
2022-10-07T08:10:53.502Z,10.66
2022-10-07T08:11:47.845Z,10.65
2022-10-07T08:12:47.825Z,10.85
2022-10-07T08:13:48.069Z,10.88
2022-10-07T08:14:48.034Z,10.91
2022-10-07T08:15:48.440Z,10.91
2022-10-07T08:16:48.523Z,10.9
2022-10-07T08:17:49.120Z,10.94
2022-10-07T08:18:48.243Z,11
2022-10-07T08:19:48.228Z,11.03
2022-10-07T08:20:48.219Z,11.05
2022-10-07T08:21:48.546Z,11.02
2022-10-07T08:22:47.944Z,11.05
2022-10-07T08:23:48.180Z,11.13
2022-10-07T08:24:48.178Z,11.08
2022-10-07T08:25:48.162Z,11.16
2022-10-07T08:26:47.893Z,11.2
2022-10-07T08:27:49.236Z,11.27
2022-10-07T08:28:48.391Z,11.3
2022-10-07T08:29:48.366Z,11.33
2022-10-07T08:30:47.965Z,11.41
2022-10-07T08:31:48.105Z,11.48
2022-10-07T08:32:48.081Z,11.48
2022-10-07T08:33:48.327Z,11.57
2022-10-07T08:34:48.313Z,11.63
2022-10-07T08:35:48.305Z,11.71
2022-10-07T08:36:48.295Z,11.66
2022-10-07T08:37:49.468Z,11.66
2022-10-07T08:38:49.429Z,11.61
2022-10-07T08:39:48.270Z,11.84
2022-10-07T08:40:48.251Z,11.82
2022-10-07T08:41:48.235Z,11.89
2022-10-07T08:42:47.968Z,12.04
2022-10-07T08:43:47.958Z,12.05
2022-10-07T08:44:48.205Z,12.08
2022-10-07T08:45:48.193Z,12.2
2022-10-07T08:46:48.185Z,12.25
2022-10-07T08:47:49.407Z,12.28
2022-10-07T08:48:48.161Z,12.36
2022-10-07T08:49:48.151Z,12.38
2022-10-07T08:50:47.887Z,12.47
2022-10-07T08:51:47.869Z,12.52
2022-10-07T08:52:47.860Z,12.55
2022-10-07T08:53:48.184Z,12.66
2022-10-07T08:54:47.841Z,12.61
2022-10-07T08:55:47.826Z,12.66
2022-10-07T08:56:47.820Z,12.71
2022-10-07T08:57:48.820Z,12.73
2022-10-07T08:58:47.798Z,12.81
2022-10-07T08:59:48.049Z,12.83
2022-10-07T09:00:47.780Z,12.96
2022-10-07T09:01:48.184Z,13.07
2022-10-07T09:02:48.029Z,13.11
2022-10-07T09:03:48.003Z,13.29
2022-10-07T09:04:47.991Z,13.2
2022-10-07T09:05:47.721Z,13.32
2022-10-07T09:06:47.717Z,13.39
2022-10-07T09:07:48.953Z,13.51
2022-10-07T09:08:47.955Z,13.48
2022-10-07T09:09:48.017Z,13.63
2022-10-07T09:10:47.418Z,13.72
2022-10-07T09:11:47.674Z,13.73
2022-10-07T09:12:47.656Z,13.79
2022-10-07T09:13:47.650Z,13.84
2022-10-07T09:14:47.897Z,13.9
2022-10-07T09:15:48.132Z,14.05
2022-10-07T09:16:47.364Z,14.06
2022-10-07T09:17:47.609Z,14.12
2022-10-07T09:18:47.603Z,14.12
2022-10-07T09:19:47.590Z,14.2
2022-10-07T09:20:47.580Z,14.23
2022-10-07T09:21:47.838Z,14.28
2022-10-07T09:22:47.590Z,14.28
2022-10-07T09:23:47.807Z,14.38
2022-10-07T09:24:48.299Z,14.42
2022-10-07T09:25:47.861Z,14.39
2022-10-07T09:26:47.525Z,14.45
2022-10-07T09:27:48.945Z,14.39
2022-10-07T09:28:47.787Z,14.49
2022-10-07T09:29:47.755Z,14.52
2022-10-07T09:30:47.998Z,14.51
2022-10-07T09:31:47.506Z,14.51
2022-10-07T09:32:47.467Z,14.63
2022-10-07T09:33:47.467Z,14.69
2022-10-07T09:34:47.705Z,14.71
2022-10-07T09:35:47.186Z,14.83
2022-10-07T09:36:47.434Z,14.94
2022-10-07T09:37:48.572Z,15.08
2022-10-07T09:38:47.676Z,15.1
2022-10-07T09:39:47.151Z,15.25
2022-10-07T09:40:47.653Z,15.34
2022-10-07T09:41:47.719Z,15.33
2022-10-07T09:42:47.127Z,15.37
2022-10-07T09:43:47.628Z,15.44
2022-10-07T09:44:47.622Z,15.43
2022-10-07T09:45:47.620Z,15.55
2022-10-07T09:46:47.562Z,15.43
2022-10-07T09:47:48.654Z,15.62
2022-10-07T09:48:47.329Z,15.67
2022-10-07T09:49:47.330Z,15.65
2022-10-07T09:50:47.077Z,15.74
2022-10-07T09:51:47.310Z,15.7
2022-10-07T09:52:47.298Z,15.91
2022-10-07T09:53:47.543Z,15.86
2022-10-07T09:54:47.318Z,15.98
2022-10-07T09:55:47.528Z,16
2022-10-07T09:56:47.014Z,16.06
2022-10-07T09:57:48.540Z,16.21
2022-10-07T09:58:47.516Z,16.32
2022-10-07T09:59:47.244Z,16.36
2022-10-07T10:00:47.258Z,16.3
2022-10-07T10:01:47.653Z,16.3
2022-10-07T10:02:47.697Z,16.34
2022-10-07T10:03:47.760Z,16.3
2022-10-07T10:04:47.211Z,16.33
2022-10-07T10:05:47.449Z,16.29
2022-10-07T10:06:47.187Z,16.25
2022-10-07T10:07:48.501Z,16.27
2022-10-07T10:08:47.186Z,16.22
2022-10-07T10:09:47.337Z,16.21
2022-10-07T10:10:47.413Z,16.27
2022-10-07T10:11:47.195Z,16.27
2022-10-07T10:12:48.684Z,16.33
2022-10-07T10:13:47.526Z,16.32
2022-10-07T10:14:46.874Z,16.29
2022-10-07T10:15:47.592Z,16.44
2022-10-07T10:16:46.859Z,16.34
2022-10-07T10:17:47.103Z,16.26
2022-10-07T10:18:46.843Z,16.36
2022-10-07T10:19:47.345Z,16.27
2022-10-07T10:20:47.084Z,16.44
2022-10-07T10:21:47.075Z,16.45
2022-10-07T10:22:48.440Z,16.49
2022-10-07T10:23:47.318Z,16.54
2022-10-07T10:24:47.307Z,16.47
2022-10-07T10:25:47.300Z,16.49
2022-10-07T10:26:46.781Z,16.42
2022-10-07T10:27:46.772Z,16.52
2022-10-07T10:28:47.125Z,16.52
2022-10-07T10:29:47.348Z,16.51
2022-10-07T10:30:47.076Z,16.54
2022-10-07T10:31:47.002Z,16.48
2022-10-07T10:32:48.085Z,16.63
2022-10-07T10:33:47.239Z,16.69
2022-10-07T10:34:46.976Z,16.76
2022-10-07T10:35:47.227Z,16.87
2022-10-07T10:36:47.225Z,16.84
2022-10-07T10:37:47.212Z,16.84
2022-10-07T10:38:46.954Z,16.87
2022-10-07T10:39:47.205Z,16.81
2022-10-07T10:40:47.198Z,16.72
2022-10-07T10:41:46.671Z,16.74
2022-10-07T10:42:47.949Z,16.8
2022-10-07T10:43:46.915Z,16.82
2022-10-07T10:44:46.658Z,16.9
2022-10-07T10:45:47.242Z,16.95
2022-10-07T10:46:53.241Z,17.03
2022-10-07T10:47:46.627Z,17.07
2022-10-07T10:48:46.875Z,17.13
2022-10-07T10:49:47.132Z,17.25
2022-10-07T10:50:47.118Z,17.15
2022-10-07T10:51:46.624Z,17.17
2022-10-07T10:52:48.261Z,17.2
2022-10-07T10:53:46.842Z,17.36
2022-10-07T10:54:47.092Z,17.31
2022-10-07T10:55:46.828Z,17.28
2022-10-07T10:56:46.846Z,17.27
2022-10-07T10:57:46.818Z,17.38
2022-10-07T10:58:46.812Z,17.4
2022-10-07T10:59:47.067Z,17.42
2022-10-07T11:00:47.067Z,17.28
2022-10-07T11:01:47.339Z,17.22
2022-10-07T11:02:47.841Z,17.12
2022-10-07T11:03:46.773Z,16.99
2022-10-07T11:04:46.771Z,17
2022-10-07T11:05:46.765Z,16.94
2022-10-07T11:06:46.500Z,17.02
2022-10-07T11:07:46.742Z,16.94
2022-10-07T11:08:46.740Z,16.91
2022-10-07T11:09:46.995Z,16.85
2022-10-07T11:10:46.986Z,16.97
2022-10-07T11:11:46.723Z,17.07
2022-10-07T11:12:47.749Z,16.95
2022-10-07T11:13:46.979Z,16.97
2022-10-07T11:14:46.700Z,16.97
2022-10-07T11:15:46.850Z,16.9
2022-10-07T11:16:47.080Z,16.94
2022-10-07T11:17:47.107Z,17.02
2022-10-07T11:18:46.677Z,17
2022-10-07T11:19:46.666Z,17.03
2022-10-07T11:20:49.367Z,17.05
2022-10-07T11:21:46.654Z,17.12
2022-10-07T11:22:47.266Z,17.07
2022-10-07T11:23:46.386Z,17.07
2022-10-07T11:24:46.635Z,17.13
2022-10-07T11:25:46.891Z,17.21
2022-10-07T11:26:46.623Z,17.21
2022-10-07T11:27:46.868Z,17.21
2022-10-07T11:28:47.141Z,17.24
2022-10-07T11:29:46.854Z,17.25
2022-10-07T11:30:46.868Z,17.25
2022-10-07T11:31:46.917Z,17.25
2022-10-07T11:32:47.665Z,17.22
2022-10-07T11:33:46.940Z,17.32
2022-10-07T11:34:48.111Z,17.43
2022-10-07T11:35:46.814Z,17.42
2022-10-07T11:36:46.563Z,17.43
2022-10-07T11:37:46.545Z,17.54
2022-10-07T11:38:46.542Z,17.49
2022-10-07T11:39:46.792Z,17.57
2022-10-07T11:40:46.782Z,17.65
2022-10-07T11:41:46.774Z,17.73
2022-10-07T11:42:47.221Z,17.74
2022-10-07T11:43:46.501Z,17.83
2022-10-07T11:44:46.501Z,17.87
2022-10-07T11:45:46.493Z,17.92
2022-10-07T11:46:46.809Z,17.9
2022-10-07T11:47:46.480Z,17.92
2022-10-07T11:48:46.777Z,17.95
2022-10-07T11:49:46.830Z,17.88
2022-10-07T11:50:46.465Z,17.81
2022-10-07T11:51:46.462Z,17.9
2022-10-07T11:52:46.980Z,17.88
2022-10-07T11:53:46.717Z,17.88
2022-10-07T11:54:46.705Z,17.84
2022-10-07T11:55:46.433Z,17.83
2022-10-07T11:56:46.423Z,17.73
2022-10-07T11:57:46.439Z,17.77
2022-10-07T11:58:46.411Z,17.76
2022-10-07T11:59:46.661Z,17.77
2022-10-07T12:00:46.667Z,17.73
2022-10-07T12:01:46.672Z,17.73
2022-10-07T12:02:47.491Z,17.73
2022-10-07T12:03:46.390Z,17.76
2022-10-07T12:04:46.123Z,17.8
2022-10-07T12:05:46.731Z,17.71
2022-10-07T12:06:46.368Z,17.71
2022-10-07T12:07:46.370Z,17.77
2022-10-07T12:08:46.622Z,17.69
2022-10-07T12:09:46.348Z,17.73
2022-10-07T12:10:46.095Z,17.68
2022-10-07T12:11:46.360Z,17.63
2022-10-07T12:12:47.540Z,17.69
2022-10-07T12:13:46.349Z,17.71
2022-10-07T12:14:46.378Z,17.71
2022-10-07T12:15:46.358Z,17.76
2022-10-07T12:16:46.876Z,17.76
2022-10-07T12:17:46.297Z,17.77
2022-10-07T12:18:46.299Z,17.69
2022-10-07T12:19:46.576Z,17.77
2022-10-07T12:20:46.547Z,17.79
2022-10-07T12:21:46.640Z,17.63
2022-10-07T12:22:46.994Z,17.68
2022-10-07T12:23:46.041Z,17.63
2022-10-07T12:24:46.518Z,17.66
2022-10-07T12:25:46.021Z,17.69
2022-10-07T12:26:46.507Z,17.55
2022-10-07T12:27:46.499Z,17.57
2022-10-07T12:28:46.577Z,17.6
2022-10-07T12:29:46.491Z,17.5
2022-10-07T12:30:46.477Z,17.52
2022-10-07T12:31:46.369Z,17.52
2022-10-07T12:32:47.142Z,17.57
2022-10-07T12:33:46.482Z,17.58
2022-10-07T12:34:46.204Z,17.58
2022-10-07T12:35:48.679Z,17.57
2022-10-07T12:36:46.460Z,17.58
2022-10-07T12:37:46.574Z,17.69
2022-10-07T12:38:46.439Z,17.76
2022-10-07T12:39:46.445Z,17.86
2022-10-07T12:40:46.416Z,17.94
2022-10-07T12:41:46.159Z,18.05
2022-10-07T12:42:47.089Z,18.02
2022-10-07T12:43:45.884Z,18.1
2022-10-07T12:44:46.388Z,18.19
2022-10-07T12:45:46.583Z,18.19
2022-10-07T12:46:46.135Z,18.19
2022-10-07T12:47:46.119Z,18.17
2022-10-07T12:48:46.366Z,18.14
2022-10-07T12:49:46.363Z,18.19
2022-10-07T12:50:46.354Z,18.19
2022-10-07T12:51:46.099Z,18.14
2022-10-07T12:52:47.200Z,18.17
2022-10-07T12:53:46.507Z,18.2
2022-10-07T12:54:46.070Z,18.1
2022-10-07T12:55:46.324Z,17.99
2022-10-07T12:56:45.810Z,18.03
2022-10-07T12:57:46.060Z,17.88
2022-10-07T12:58:46.051Z,17.79
2022-10-07T12:59:46.338Z,17.8
2022-10-07T13:00:46.577Z,17.69
2022-10-07T13:01:46.512Z,17.73
2022-10-07T13:02:46.834Z,17.69
2022-10-07T13:03:46.284Z,17.58
2022-10-07T13:04:46.013Z,17.68
2022-10-07T13:05:46.012Z,17.74
2022-10-07T13:06:46.260Z,17.68
2022-10-07T13:07:45.749Z,17.68
2022-10-07T13:08:45.989Z,17.68
2022-10-07T13:09:46.317Z,17.65
2022-10-07T13:10:45.980Z,17.74
2022-10-07T13:11:52.303Z,17.69
2022-10-07T13:12:47.161Z,17.66
2022-10-07T13:13:45.962Z,17.71
2022-10-07T13:14:46.211Z,17.68
2022-10-07T13:15:46.256Z,17.63
2022-10-07T13:16:46.593Z,17.73
2022-10-07T13:17:46.207Z,17.73
2022-10-07T13:18:45.948Z,17.66
2022-10-07T13:19:45.931Z,17.71
2022-10-07T13:20:46.192Z,17.63
2022-10-07T13:21:45.663Z,17.69
2022-10-07T13:22:46.287Z,17.65
2022-10-07T13:23:45.905Z,17.65
2022-10-07T13:24:46.154Z,17.68
2022-10-07T13:25:46.227Z,17.65
2022-10-07T13:26:45.631Z,17.69
2022-10-07T13:27:45.886Z,17.77
2022-10-07T13:28:46.159Z,17.71